createdAt,value
2023-02-19T00:00:05.005Z,55.15
2023-02-19T00:02:31.536Z,55.19
2023-02-19T00:04:58.101Z,55.10
2023-02-19T00:07:24.642Z,55.00
2023-02-19T00:09:51.133Z,54.68
2023-02-19T00:12:17.655Z,55.01
2023-02-19T00:14:44.266Z,54.97
2023-02-19T00:17:10.784Z,54.90
2023-02-19T00:19:37.327Z,55.11
2023-02-19T00:22:03.818Z,54.72
2023-02-19T00:24:30.330Z,55.20
2023-02-19T00:26:56.864Z,55.07
2023-02-19T00:29:24.978Z,55.12
2023-02-19T00:31:51.663Z,55.75
2023-02-19T00:34:18.213Z,55.13
2023-02-19T00:36:44.711Z,55.12
2023-02-19T00:39:15.719Z,55.03
2023-02-19T00:41:42.604Z,55.15
2023-02-19T00:44:11.320Z,55.38
2023-02-19T00:46:45.961Z,55.33
2023-02-19T00:49:22.072Z,55.19
2023-02-19T00:51:50.535Z,55.66
2023-02-19T00:54:17.433Z,55.05
2023-02-19T00:56:44.144Z,55.38
2023-02-19T00:59:11.034Z,55.15
2023-02-19T01:01:37.822Z,55.19
2023-02-19T01:04:06.547Z,54.84
2023-02-19T01:06:34.633Z,55.49
2023-02-19T01:09:01.215Z,55.47
2023-02-19T01:11:27.944Z,55.27
2023-02-19T01:13:58.594Z,55.22
2023-02-19T01:16:25.284Z,55.39
2023-02-19T01:18:52.201Z,55.34
2023-02-19T01:21:22.051Z,55.21
2023-02-19T01:23:50.087Z,55.34
2023-02-19T01:26:22.168Z,55.41
2023-02-19T01:28:48.783Z,55.32
2023-02-19T01:31:24.123Z,55.31
2023-02-19T01:33:53.590Z,55.25
2023-02-19T01:36:20.332Z,55.41
2023-02-19T01:38:47.419Z,55.49
2023-02-19T01:41:17.489Z,55.06
2023-02-19T01:44:17.075Z,55.94
2023-02-19T01:46:45.211Z,55.30
2023-02-19T01:49:16.401Z,55.19
2023-02-19T01:51:50.974Z,55.14
2023-02-19T01:54:22.496Z,55.50
2023-02-19T01:56:49.922Z,54.98
2023-02-19T01:59:17.159Z,55.27
2023-02-19T02:01:43.912Z,55.00
2023-02-19T02:04:13.360Z,55.30
2023-02-19T02:06:44.140Z,55.54
2023-02-19T02:09:29.475Z,54.96
2023-02-19T02:11:56.034Z,55.79
2023-02-19T02:14:26.824Z,55.33
2023-02-19T02:17:34.359Z,55.86
2023-02-19T02:20:41.219Z,55.68
2023-02-19T02:23:44.824Z,55.13
2023-02-19T02:26:35.438Z,55.46
2023-02-19T02:29:45.930Z,55.06
2023-02-19T02:32:26.874Z,55.27
2023-02-19T02:35:24.205Z,55.48
2023-02-19T02:37:54.115Z,55.73
2023-02-19T02:40:20.845Z,55.62
2023-02-19T02:42:47.625Z,55.48
2023-02-19T02:45:37.257Z,55.62
2023-02-19T02:48:30.144Z,55.71
2023-02-19T02:51:25.572Z,55.35
2023-02-19T02:54:22.870Z,55.38
2023-02-19T02:56:50.239Z,55.33
2023-02-19T02:59:21.817Z,55.68
2023-02-19T03:02:14.256Z,55.38
2023-02-19T03:05:03.885Z,55.75
2023-02-19T03:07:37.114Z,55.82
2023-02-19T03:10:07.855Z,55.29
2023-02-19T03:12:57.431Z,55.44
2023-02-19T03:15:47.372Z,55.87
2023-02-19T03:18:34.333Z,55.63
2023-02-19T03:21:02.461Z,55.47
2023-02-19T03:23:51.602Z,55.90
2023-02-19T03:26:19.808Z,55.57
2023-02-19T03:29:08.854Z,55.64
2023-02-19T03:31:39.815Z,55.71
2023-02-19T03:34:12.663Z,55.65
2023-02-19T03:36:50.802Z,55.46
2023-02-19T03:39:21.620Z,55.07
2023-02-19T03:42:17.250Z,55.62
2023-02-19T03:45:21.978Z,55.67
2023-02-19T03:47:53.162Z,55.94
2023-02-19T03:50:19.599Z,55.22
2023-02-19T03:52:52.345Z,55.42
2023-02-19T03:56:04.615Z,55.99
2023-02-19T03:59:08.118Z,56.09
2023-02-19T04:01:34.561Z,55.72
2023-02-19T04:04:09.185Z,55.70
2023-02-19T04:06:37.798Z,55.49
2023-02-19T04:09:08.683Z,55.91
2023-02-19T04:11:36.611Z,55.40
2023-02-19T04:14:10.301Z,55.61
2023-02-19T04:16:39.641Z,55.89
2023-02-19T04:19:10.852Z,55.46
2023-02-19T04:21:39.631Z,55.16
2023-02-19T04:24:14.581Z,55.70
2023-02-19T04:26:42.389Z,55.71
2023-02-19T04:29:08.945Z,55.67
2023-02-19T04:31:36.487Z,55.17
2023-02-19T04:34:03.878Z,55.65
2023-02-19T04:36:31.627Z,55.30
2023-02-19T04:38:58.273Z,55.54
2023-02-19T04:41:25.127Z,55.71
2023-02-19T04:43:51.644Z,55.59
2023-02-19T04:46:18.258Z,55.57
2023-02-19T04:48:44.892Z,55.67
2023-02-19T04:51:11.957Z,55.37
2023-02-19T04:53:38.733Z,55.33
2023-02-19T04:56:11.033Z,55.31
2023-02-19T04:58:37.599Z,55.70
2023-02-19T05:01:04.558Z,55.98
2023-02-19T05:03:31.334Z,55.22
2023-02-19T05:05:57.858Z,55.40
2023-02-19T05:08:24.398Z,55.59
2023-02-19T05:10:50.967Z,55.56
2023-02-19T05:13:17.524Z,55.60
2023-02-19T05:15:54.766Z,55.50
2023-02-19T05:18:21.304Z,55.37
2023-02-19T05:20:47.791Z,55.42
2023-02-19T05:23:14.289Z,55.83
2023-02-19T05:25:40.791Z,55.78
2023-02-19T05:28:19.295Z,55.41
2023-02-19T05:30:48.731Z,55.68
2023-02-19T05:33:16.280Z,55.68
2023-02-19T05:35:53.195Z,55.41
2023-02-19T05:38:20.032Z,55.79
2023-02-19T05:40:46.965Z,55.56
2023-02-19T05:43:14.258Z,55.77
2023-02-19T05:45:41.247Z,55.78
2023-02-19T05:48:08.726Z,56.02
2023-02-19T05:50:38.258Z,55.83
2023-02-19T05:53:06.379Z,55.48
2023-02-19T05:55:36.411Z,55.65
2023-02-19T05:58:03.400Z,55.85
2023-02-19T06:00:30.519Z,55.09
2023-02-19T06:02:57.132Z,55.37
2023-02-19T06:05:23.734Z,55.39
2023-02-19T06:07:50.564Z,55.59
2023-02-19T06:10:18.205Z,55.86
2023-02-19T06:12:45.362Z,55.39
2023-02-19T06:15:11.858Z,55.62
2023-02-19T06:17:38.406Z,55.29
2023-02-19T06:20:05.165Z,55.77
2023-02-19T06:22:31.668Z,55.18
2023-02-19T06:24:58.199Z,55.45
2023-02-19T06:27:24.786Z,55.85
2023-02-19T06:29:51.304Z,55.81
2023-02-19T06:32:18.035Z,55.25
2023-02-19T06:34:44.737Z,55.46
2023-02-19T06:37:11.258Z,55.85
2023-02-19T06:39:37.848Z,55.19
2023-02-19T06:42:04.475Z,55.79
2023-02-19T06:44:31.029Z,55.66
2023-02-19T06:46:57.559Z,55.58
2023-02-19T06:49:24.093Z,55.91
2023-02-19T06:51:50.634Z,55.52
2023-02-19T06:54:17.138Z,55.68
2023-02-19T06:56:46.139Z,55.63
2023-02-19T06:59:18.823Z,55.27
2023-02-19T07:01:46.124Z,55.91
2023-02-19T07:04:12.758Z,55.60
2023-02-19T07:06:39.348Z,55.85
2023-02-19T07:09:07.665Z,55.89
2023-02-19T07:11:36.402Z,55.48
2023-02-19T07:14:04.855Z,55.66
2023-02-19T07:16:31.480Z,55.68
2023-02-19T07:18:59.123Z,55.70
2023-02-19T07:21:25.982Z,55.50
2023-02-19T07:23:52.999Z,55.66
2023-02-19T07:26:20.595Z,55.86
2023-02-19T07:28:48.723Z,55.33
2023-02-19T07:31:17.597Z,55.76
2023-02-19T07:33:45.108Z,55.68
2023-02-19T07:36:12.738Z,55.94
2023-02-19T07:38:39.898Z,55.66
2023-02-19T07:41:07.107Z,55.94
2023-02-19T07:43:35.908Z,55.75
2023-02-19T07:46:04.065Z,55.52
2023-02-19T07:48:30.664Z,56.01
2023-02-19T07:50:59.681Z,55.51
2023-02-19T07:53:27.667Z,55.57
2023-02-19T07:55:54.494Z,55.58
2023-02-19T07:58:20.996Z,55.64
2023-02-19T08:00:47.603Z,55.95
2023-02-19T08:03:14.173Z,55.43
2023-02-19T08:05:42.833Z,55.69
2023-02-19T08:08:14.389Z,55.10
2023-02-19T08:10:59.573Z,55.70
2023-02-19T08:13:30.105Z,56.02
2023-02-19T08:16:20.140Z,55.93
2023-02-19T08:18:49.214Z,55.80
2023-02-19T08:21:18.198Z,55.79
2023-02-19T08:23:46.258Z,55.23
2023-02-19T08:26:12.805Z,55.40
2023-02-19T08:28:39.366Z,55.30
2023-02-19T08:31:07.546Z,56.34
2023-02-19T08:33:34.587Z,55.90
2023-02-19T08:36:06.466Z,55.80
2023-02-19T08:38:35.837Z,55.79
2023-02-19T08:41:10.598Z,55.12
2023-02-19T08:43:37.460Z,55.53
2023-02-19T08:46:04.399Z,55.58
2023-02-19T08:48:30.947Z,55.64
2023-02-19T08:50:59.695Z,55.87
2023-02-19T08:53:26.497Z,55.64
2023-02-19T08:55:53.416Z,55.48
2023-02-19T08:58:20.022Z,55.35
2023-02-19T09:00:46.629Z,55.81
2023-02-19T09:03:13.166Z,55.61
2023-02-19T09:05:40.005Z,55.29
2023-02-19T09:08:06.581Z,55.65
2023-02-19T09:10:33.117Z,55.05
2023-02-19T09:12:59.785Z,56.05
2023-02-19T09:15:26.414Z,55.83
2023-02-19T09:17:53.286Z,56.14
2023-02-19T09:20:20.044Z,56.19
2023-02-19T09:22:47.101Z,55.89
2023-02-19T09:25:13.633Z,56.01
2023-02-19T09:27:40.116Z,56.16
2023-02-19T09:30:07.202Z,55.97
2023-02-19T09:32:33.848Z,55.67
2023-02-19T09:35:00.390Z,55.76
2023-02-19T09:37:27.985Z,56.06
2023-02-19T09:39:55.335Z,56.01
2023-02-19T09:42:29.766Z,55.80
2023-02-19T09:44:59.251Z,55.75
2023-02-19T09:47:29.473Z,55.62
2023-02-19T09:50:00.464Z,55.96
2023-02-19T09:52:44.757Z,55.92
2023-02-19T09:55:20.627Z,55.75
2023-02-19T09:57:47.525Z,55.79
2023-02-19T10:00:23.503Z,55.47
2023-02-19T10:03:00.009Z,55.51
2023-02-19T10:05:27.304Z,55.61
2023-02-19T10:07:55.564Z,55.48
2023-02-19T10:10:35.276Z,55.28
2023-02-19T10:13:30.375Z,55.77
2023-02-19T10:15:59.048Z,55.67
2023-02-19T10:18:29.150Z,55.27
2023-02-19T10:20:57.014Z,55.46
2023-02-19T10:23:25.211Z,55.69
2023-02-19T10:25:56.678Z,55.55
2023-02-19T10:28:27.346Z,55.44
2023-02-19T10:30:57.160Z,55.66
2023-02-19T10:33:24.708Z,55.64
2023-02-19T10:35:55.904Z,55.81
2023-02-19T10:38:45.287Z,55.38
2023-02-19T10:41:18.034Z,55.93
2023-02-19T10:44:04.714Z,55.97
2023-02-19T10:46:43.499Z,55.47
2023-02-19T10:49:51.617Z,55.37
2023-02-19T10:52:28.282Z,55.84
2023-02-19T10:55:24.806Z,55.27
2023-02-19T10:57:51.412Z,55.29
2023-02-19T11:00:27.491Z,55.44
2023-02-19T11:03:15.286Z,55.51
2023-02-19T11:06:00.586Z,55.40
2023-02-19T11:08:27.325Z,55.26
2023-02-19T11:10:54.039Z,55.38
2023-02-19T11:13:32.244Z,55.61
2023-02-19T11:16:00.151Z,55.22
2023-02-19T11:18:32.573Z,55.32
2023-02-19T11:21:02.147Z,55.02
2023-02-19T11:23:36.193Z,55.43
2023-02-19T11:26:15.581Z,55.51
2023-02-19T11:28:43.494Z,55.41
2023-02-19T11:31:19.428Z,55.23
2023-02-19T11:33:54.112Z,55.07
2023-02-19T11:36:23.518Z,54.75
2023-02-19T11:38:50.058Z,55.26
2023-02-19T11:41:51.311Z,55.14
2023-02-19T11:44:44.019Z,55.09
2023-02-19T11:47:45.051Z,55.35
2023-02-19T11:50:26.638Z,54.96
2023-02-19T11:53:11.107Z,55.45
2023-02-19T11:56:05.908Z,55.00
2023-02-19T11:59:09.991Z,55.19
2023-02-19T12:01:48.858Z,54.73
2023-02-19T12:04:27.435Z,55.33
2023-02-19T12:07:12.438Z,55.16
2023-02-19T12:09:41.741Z,54.88
2023-02-19T12:12:15.151Z,54.89
2023-02-19T12:15:00.475Z,55.47
2023-02-19T12:17:51.544Z,54.70
2023-02-19T12:20:31.415Z,55.15
2023-02-19T12:23:30.435Z,55.24
2023-02-19T12:26:04.369Z,55.18
2023-02-19T12:28:49.715Z,54.79
2023-02-19T12:31:28.528Z,55.06
2023-02-19T12:34:10.123Z,54.88
2023-02-19T12:37:08.806Z,54.83
2023-02-19T12:39:50.515Z,54.81
2023-02-19T12:42:35.700Z,54.65
2023-02-19T12:45:16.489Z,54.81
2023-02-19T12:47:45.564Z,54.72
2023-02-19T12:50:19.062Z,55.09
2023-02-19T12:52:50.811Z,54.89
2023-02-19T12:55:30.770Z,54.79
2023-02-19T12:58:02.022Z,55.42
2023-02-19T13:00:35.614Z,54.99
2023-02-19T13:03:22.176Z,54.89
2023-02-19T13:06:36.249Z,54.85
2023-02-19T13:09:15.777Z,54.98
2023-02-19T13:11:50.607Z,54.83
2023-02-19T13:14:33.922Z,55.22
2023-02-19T13:17:09.381Z,55.37
2023-02-19T13:19:38.476Z,55.22
2023-02-19T13:22:47.007Z,55.15
2023-02-19T13:25:16.285Z,55.05
2023-02-19T13:28:00.962Z,55.23
2023-02-19T13:30:47.266Z,55.25
2023-02-19T13:33:35.129Z,55.26
2023-02-19T13:36:10.474Z,54.99
2023-02-19T13:38:41.036Z,54.78
2023-02-19T13:41:18.652Z,54.91
2023-02-19T13:43:46.976Z,54.92
2023-02-19T13:46:20.204Z,55.39
2023-02-19T13:48:46.808Z,55.34
2023-02-19T13:51:15.914Z,55.21
2023-02-19T13:53:45.549Z,55.39
2023-02-19T13:56:30.160Z,55.96
2023-02-19T13:58:58.584Z,55.82
2023-02-19T14:01:53.211Z,55.55
2023-02-19T14:04:38.255Z,55.70
2023-02-19T14:07:04.739Z,55.64
2023-02-19T14:09:34.338Z,56.03
2023-02-19T14:12:17.595Z,55.71
2023-02-19T14:14:45.701Z,56.02
2023-02-19T14:17:41.910Z,55.91
2023-02-19T14:20:17.585Z,56.06
2023-02-19T14:22:49.683Z,56.04
2023-02-19T14:25:28.590Z,56.24
2023-02-19T14:28:04.643Z,55.89
2023-02-19T14:30:48.745Z,55.78
2023-02-19T14:33:18.244Z,55.82
2023-02-19T14:35:47.421Z,56.08
2023-02-19T14:38:20.468Z,56.11
2023-02-19T14:40:48.594Z,55.94
2023-02-19T14:43:18.421Z,55.74
2023-02-19T14:46:15.447Z,56.07
2023-02-19T14:48:46.439Z,55.85
2023-02-19T14:51:36.071Z,55.88
2023-02-19T14:54:15.327Z,55.63
2023-02-19T14:56:45.787Z,55.15
2023-02-19T14:59:12.257Z,55.09
2023-02-19T15:01:39.215Z,55.33
2023-02-19T15:04:06.603Z,55.02
2023-02-19T15:06:35.864Z,55.26
2023-02-19T15:09:07.256Z,55.01
2023-02-19T15:11:35.780Z,54.77
2023-02-19T15:14:05.570Z,54.69
2023-02-19T15:16:35.702Z,54.76
2023-02-19T15:19:07.650Z,54.76
2023-02-19T15:21:38.834Z,54.83
2023-02-19T15:24:07.012Z,54.38
2023-02-19T15:26:39.015Z,54.64
2023-02-19T15:29:12.035Z,54.35
2023-02-19T15:31:49.680Z,54.32
2023-02-19T15:34:28.418Z,54.16
2023-02-19T15:36:59.738Z,54.41
2023-02-19T15:39:39.206Z,54.66
2023-02-19T15:42:07.889Z,54.46
2023-02-19T15:44:40.597Z,54.11
2023-02-19T15:47:33.321Z,53.87
2023-02-19T15:50:21.652Z,54.17
2023-02-19T15:52:59.349Z,54.01
2023-02-19T15:56:01.080Z,53.61
2023-02-19T15:58:42.808Z,53.78
2023-02-19T16:01:28.541Z,53.94
2023-02-19T16:03:55.757Z,53.88
2023-02-19T16:06:24.508Z,54.20
2023-02-19T16:09:03.959Z,55.17
2023-02-19T16:12:00.398Z,56.64
2023-02-19T16:14:26.821Z,55.95
2023-02-19T16:17:10.482Z,57.49
2023-02-19T16:19:42.983Z,58.01
2023-02-19T16:22:11.651Z,57.58
2023-02-19T16:24:45.181Z,58.56
2023-02-19T16:27:14.794Z,58.29
2023-02-19T16:29:41.451Z,58.70
2023-02-19T16:32:16.630Z,58.67
2023-02-19T16:34:48.120Z,58.20
2023-02-19T16:37:37.619Z,57.89
2023-02-19T16:40:07.180Z,57.85
2023-02-19T16:42:34.907Z,57.63
2023-02-19T16:45:01.924Z,57.60
2023-02-19T16:47:30.943Z,57.71
2023-02-19T16:50:00.385Z,57.70
2023-02-19T16:52:27.332Z,57.30
2023-02-19T16:54:53.891Z,57.46
2023-02-19T16:57:20.830Z,57.10
2023-02-19T16:59:48.170Z,57.16
2023-02-19T17:02:22.356Z,57.00
2023-02-19T17:04:50.011Z,56.35
2023-02-19T17:07:18.196Z,56.73
2023-02-19T17:09:45.021Z,56.58
2023-02-19T17:12:13.939Z,56.78
2023-02-19T17:14:40.535Z,56.65
2023-02-19T17:17:07.101Z,56.39
2023-02-19T17:19:33.900Z,56.28
2023-02-19T17:22:00.464Z,55.93
2023-02-19T17:24:26.995Z,55.92
2023-02-19T17:26:53.597Z,56.19
2023-02-19T17:29:20.163Z,55.93
2023-02-19T17:31:46.849Z,55.80
2023-02-19T17:34:13.426Z,55.78
2023-02-19T17:36:40.888Z,55.71
2023-02-19T17:39:08.285Z,55.54
2023-02-19T17:41:35.124Z,55.48
2023-02-19T17:44:01.635Z,55.49
2023-02-19T17:46:28.181Z,55.56
2023-02-19T17:48:55.410Z,55.31
2023-02-19T17:51:22.318Z,55.05
2023-02-19T17:53:49.435Z,55.48
2023-02-19T17:56:18.820Z,55.50
2023-02-19T17:58:45.944Z,54.86
2023-02-19T18:01:12.899Z,55.30
2023-02-19T18:03:39.712Z,55.56
2023-02-19T18:06:06.633Z,54.88
2023-02-19T18:08:33.132Z,54.73
2023-02-19T18:11:00.266Z,55.21
2023-02-19T18:13:27.282Z,55.00
2023-02-19T18:15:54.075Z,54.76
2023-02-19T18:18:21.183Z,54.72
2023-02-19T18:20:47.759Z,54.72
2023-02-19T18:23:14.751Z,54.48
2023-02-19T18:25:41.234Z,54.65
2023-02-19T18:28:07.825Z,54.61
2023-02-19T18:30:34.434Z,54.26
2023-02-19T18:33:02.321Z,54.22
2023-02-19T18:35:28.894Z,54.08
2023-02-19T18:37:55.873Z,54.27
2023-02-19T18:40:25.892Z,54.45
2023-02-19T18:42:52.854Z,54.00
2023-02-19T18:45:19.397Z,54.63
2023-02-19T18:47:47.965Z,54.38
2023-02-19T18:50:15.110Z,54.01
2023-02-19T18:52:41.721Z,54.07
2023-02-19T18:55:10.742Z,54.38
2023-02-19T18:57:37.511Z,54.01
2023-02-19T19:00:08.029Z,54.35
2023-02-19T19:02:48.434Z,54.16
2023-02-19T19:05:21.438Z,54.17
2023-02-19T19:07:48.591Z,54.21
2023-02-19T19:10:15.131Z,54.25
2023-02-19T19:12:41.986Z,53.91
2023-02-19T19:15:08.953Z,54.15
2023-02-19T19:17:35.591Z,54.00
2023-02-19T19:20:02.154Z,54.20
2023-02-19T19:22:28.624Z,53.91
2023-02-19T19:24:55.161Z,53.91
2023-02-19T19:27:21.736Z,53.91
2023-02-19T19:29:49.711Z,53.75
2023-02-19T19:32:16.287Z,53.94
2023-02-19T19:34:43.152Z,53.93
2023-02-19T19:37:09.838Z,53.82
2023-02-19T19:39:37.149Z,53.90
2023-02-19T19:42:04.510Z,54.02
2023-02-19T19:44:31.070Z,53.62
2023-02-19T19:46:57.767Z,54.11
2023-02-19T19:49:24.389Z,53.44
2023-02-19T19:51:51.045Z,53.98
2023-02-19T19:54:17.610Z,53.86
2023-02-19T19:56:46.971Z,53.67
2023-02-19T19:59:16.402Z,53.69
2023-02-19T20:01:54.565Z,53.33
2023-02-19T20:04:23.355Z,53.71
2023-02-19T20:06:50.188Z,53.30
2023-02-19T20:09:18.078Z,53.57
2023-02-19T20:11:50.220Z,52.98
2023-02-19T20:14:18.627Z,53.19
2023-02-19T20:16:47.393Z,53.04
2023-02-19T20:19:15.485Z,53.30
2023-02-19T20:21:46.715Z,53.17
2023-02-19T20:24:15.363Z,53.06
2023-02-19T20:26:41.989Z,53.26
2023-02-19T20:29:10.462Z,52.64
2023-02-19T20:31:38.494Z,53.14
2023-02-19T20:34:05.704Z,53.06
2023-02-19T20:36:32.752Z,53.36
2023-02-19T20:38:59.403Z,53.60
2023-02-19T20:41:26.235Z,53.30
2023-02-19T20:43:52.739Z,53.38
2023-02-19T20:46:19.313Z,53.24
2023-02-19T20:48:46.100Z,53.30
2023-02-19T20:51:12.731Z,53.60
2023-02-19T20:53:41.373Z,53.16
2023-02-19T20:56:07.930Z,53.38
2023-02-19T20:58:34.458Z,53.57
2023-02-19T21:01:01.191Z,53.49
2023-02-19T21:03:27.767Z,53.12
2023-02-19T21:05:54.322Z,53.36
2023-02-19T21:08:20.888Z,52.88
2023-02-19T21:10:47.465Z,53.11
2023-02-19T21:13:14.017Z,53.53
2023-02-19T21:15:40.660Z,53.51
2023-02-19T21:18:07.286Z,52.72
2023-02-19T21:20:34.805Z,52.95
2023-02-19T21:23:01.871Z,53.52
2023-02-19T21:25:28.465Z,53.70
2023-02-19T21:27:54.975Z,52.96
2023-02-19T21:30:21.617Z,53.72
2023-02-19T21:32:48.176Z,52.99
2023-02-19T21:35:15.084Z,53.40
2023-02-19T21:37:43.397Z,53.07
2023-02-19T21:40:12.166Z,53.70
2023-02-19T21:42:39.150Z,53.60
2023-02-19T21:45:06.126Z,53.22
2023-02-19T21:47:32.671Z,53.54
2023-02-19T21:49:59.223Z,53.31
2023-02-19T21:52:26.924Z,53.10
2023-02-19T21:54:53.525Z,53.37
2023-02-19T21:57:20.056Z,53.17
2023-02-19T21:59:46.711Z,53.11
2023-02-19T22:02:13.475Z,53.40
2023-02-19T22:04:40.889Z,52.88
2023-02-19T22:07:07.443Z,52.89
2023-02-19T22:09:33.964Z,53.31
2023-02-19T22:12:00.469Z,52.87
2023-02-19T22:14:26.975Z,53.37
2023-02-19T22:16:53.476Z,53.62
2023-02-19T22:19:20.290Z,52.91
2023-02-19T22:21:46.829Z,53.09
2023-02-19T22:24:18.647Z,52.95
2023-02-19T22:26:45.753Z,53.38
2023-02-19T22:29:14.599Z,53.66
2023-02-19T22:31:41.761Z,54.05
2023-02-19T22:34:09.061Z,53.98
2023-02-19T22:36:39.666Z,53.60
2023-02-19T22:39:08.373Z,54.03
2023-02-19T22:41:34.963Z,53.56
2023-02-19T22:44:01.964Z,53.70
2023-02-19T22:46:30.370Z,53.89
2023-02-19T22:48:57.921Z,54.00
2023-02-19T22:51:25.234Z,53.93
2023-02-19T22:53:54.045Z,53.91
2023-02-19T22:56:23.168Z,53.65
2023-02-19T22:58:50.310Z,53.26
2023-02-19T23:01:17.405Z,53.69
2023-02-19T23:03:48.645Z,53.67
2023-02-19T23:06:17.435Z,53.95
2023-02-19T23:08:44.173Z,54.28
2023-02-19T23:11:12.389Z,53.81
2023-02-19T23:13:42.440Z,53.99
2023-02-19T23:16:09.175Z,54.34
2023-02-19T23:18:35.944Z,54.76
2023-02-19T23:21:02.463Z,54.01
2023-02-19T23:23:28.953Z,54.54
2023-02-19T23:25:55.540Z,53.82
2023-02-19T23:28:22.153Z,54.42
2023-02-19T23:30:48.772Z,54.02
2023-02-19T23:33:15.523Z,54.12
2023-02-19T23:35:42.027Z,53.72
2023-02-19T23:38:08.594Z,53.91
2023-02-19T23:40:35.183Z,54.23
2023-02-19T23:43:01.722Z,54.14
2023-02-19T23:45:29.270Z,53.87
2023-02-19T23:47:56.064Z,54.33
2023-02-19T23:50:22.575Z,53.79
2023-02-19T23:52:49.123Z,54.31
2023-02-19T23:55:15.744Z,54.41
2023-02-19T23:57:42.280Z,54.73
